sensor_id;sensor_type;location;lat;lon;timestamp;temperature;humidity
44607;DHT22;30315;46.072;14.474;2023-08-21T00:01:47;27.50;70.10
44607;DHT22;30315;46.072;14.474;2023-08-21T00:04:14;27.50;70.10
44607;DHT22;30315;46.072;14.474;2023-08-21T00:06:42;27.50;70.20
44607;DHT22;30315;46.072;14.474;2023-08-21T00:09:09;27.40;70.10
44607;DHT22;30315;46.072;14.474;2023-08-21T00:11:37;27.40;70.40
44607;DHT22;30315;46.072;14.474;2023-08-21T00:14:04;27.40;70.60
44607;DHT22;30315;46.072;14.474;2023-08-21T00:16:31;27.30;70.60
44607;DHT22;30315;46.072;14.474;2023-08-21T00:18:59;27.30;70.50
44607;DHT22;30315;46.072;14.474;2023-08-21T00:21:26;27.30;70.60
44607;DHT22;30315;46.072;14.474;2023-08-21T00:23:54;27.20;70.80
44607;DHT22;30315;46.072;14.474;2023-08-21T00:26:21;27.10;70.80
44607;DHT22;30315;46.072;14.474;2023-08-21T00:28:48;27.10;71.00
44607;DHT22;30315;46.072;14.474;2023-08-21T00:31:16;27.10;71.20
44607;DHT22;30315;46.072;14.474;2023-08-21T00:33:43;27.10;71.20
44607;DHT22;30315;46.072;14.474;2023-08-21T00:36:10;27.10;71.40
44607;DHT22;30315;46.072;14.474;2023-08-21T00:38:37;27.00;71.30
44607;DHT22;30315;46.072;14.474;2023-08-21T00:41:04;27.00;71.40
44607;DHT22;30315;46.072;14.474;2023-08-21T00:43:31;27.00;71.50
44607;DHT22;30315;46.072;14.474;2023-08-21T00:46:00;27.00;71.70
44607;DHT22;30315;46.072;14.474;2023-08-21T00:48:27;26.90;71.60
44607;DHT22;30315;46.072;14.474;2023-08-21T00:50:54;26.90;71.60
44607;DHT22;30315;46.072;14.474;2023-08-21T00:53:22;26.90;71.70
44607;DHT22;30315;46.072;14.474;2023-08-21T00:55:49;26.80;71.60
44607;DHT22;30315;46.072;14.474;2023-08-21T00:58:17;26.70;71.70
44607;DHT22;30315;46.072;14.474;2023-08-21T01:00:49;26.70;71.80
44607;DHT22;30315;46.072;14.474;2023-08-21T01:03:18;26.60;71.90
44607;DHT22;30315;46.072;14.474;2023-08-21T01:05:46;26.60;72.20
44607;DHT22;30315;46.072;14.474;2023-08-21T01:08:40;26.60;72.30
44607;DHT22;30315;46.072;14.474;2023-08-21T01:14:00;26.40;72.70
44607;DHT22;30315;46.072;14.474;2023-08-21T01:16:31;26.50;72.90
44607;DHT22;30315;46.072;14.474;2023-08-21T01:19:01;26.40;73.10
44607;DHT22;30315;46.072;14.474;2023-08-21T01:21:29;26.40;73.30
44607;DHT22;30315;46.072;14.474;2023-08-21T01:23:56;26.40;73.60
44607;DHT22;30315;46.072;14.474;2023-08-21T01:26:24;26.30;73.50
44607;DHT22;30315;46.072;14.474;2023-08-21T01:28:52;26.40;73.50
44607;DHT22;30315;46.072;14.474;2023-08-21T01:31:28;26.30;73.20
44607;DHT22;30315;46.072;14.474;2023-08-21T01:33:59;26.30;73.30
44607;DHT22;30315;46.072;14.474;2023-08-21T01:36:30;26.30;73.50
44607;DHT22;30315;46.072;14.474;2023-08-21T01:38:58;26.30;73.30
44607;DHT22;30315;46.072;14.474;2023-08-21T01:41:25;26.30;73.50
44607;DHT22;30315;46.072;14.474;2023-08-21T01:43:53;26.20;73.50
44607;DHT22;30315;46.072;14.474;2023-08-21T01:46:21;26.20;73.30
44607;DHT22;30315;46.072;14.474;2023-08-21T01:48:48;26.20;73.40
44607;DHT22;30315;46.072;14.474;2023-08-21T01:51:15;26.20;73.40
44607;DHT22;30315;46.072;14.474;2023-08-21T01:53:43;26.50;73.80
44607;DHT22;30315;46.072;14.474;2023-08-21T01:56:10;26.10;73.60
44607;DHT22;30315;46.072;14.474;2023-08-21T01:58:37;26.10;73.50
44607;DHT22;30315;46.072;14.474;2023-08-21T02:01:04;26.20;73.90
44607;DHT22;30315;46.072;14.474;2023-08-21T02:03:33;26.10;73.60
44607;DHT22;30315;46.072;14.474;2023-08-21T02:06:00;26.10;73.50
44607;DHT22;30315;46.072;14.474;2023-08-21T02:08:33;26.10;73.10
44607;DHT22;30315;46.072;14.474;2023-08-21T02:11:00;26.10;73.10
44607;DHT22;30315;46.072;14.474;2023-08-21T02:13:28;26.00;73.00
44607;DHT22;30315;46.072;14.474;2023-08-21T02:15:55;26.00;73.00
44607;DHT22;30315;46.072;14.474;2023-08-21T02:18:22;26.00;73.30
44607;DHT22;30315;46.072;14.474;2023-08-21T02:20:50;26.00;73.30
44607;DHT22;30315;46.072;14.474;2023-08-21T02:23:40;25.90;73.50
44607;DHT22;30315;46.072;14.474;2023-08-21T02:26:10;25.90;73.60
44607;DHT22;30315;46.072;14.474;2023-08-21T02:28:39;25.90;74.20
44607;DHT22;30315;46.072;14.474;2023-08-21T02:31:09;25.80;73.90
44607;DHT22;30315;46.072;14.474;2023-08-21T02:33:37;25.80;73.60
44607;DHT22;30315;46.072;14.474;2023-08-21T02:36:04;25.80;73.60
44607;DHT22;30315;46.072;14.474;2023-08-21T02:38:31;25.80;73.60
44607;DHT22;30315;46.072;14.474;2023-08-21T02:40:58;25.70;73.70
44607;DHT22;30315;46.072;14.474;2023-08-21T02:43:25;25.70;73.90
44607;DHT22;30315;46.072;14.474;2023-08-21T02:45:53;25.70;73.70
44607;DHT22;30315;46.072;14.474;2023-08-21T02:48:20;25.60;73.90
44607;DHT22;30315;46.072;14.474;2023-08-21T02:50:48;25.60;74.00
44607;DHT22;30315;46.072;14.474;2023-08-21T02:53:15;25.50;74.20
44607;DHT22;30315;46.072;14.474;2023-08-21T02:55:42;25.50;74.30
44607;DHT22;30315;46.072;14.474;2023-08-21T02:58:12;25.40;74.30
44607;DHT22;30315;46.072;14.474;2023-08-21T03:00:39;25.40;74.30
44607;DHT22;30315;46.072;14.474;2023-08-21T03:03:06;25.40;74.10
44607;DHT22;30315;46.072;14.474;2023-08-21T03:05:34;25.40;74.20
44607;DHT22;30315;46.072;14.474;2023-08-21T03:08:01;25.30;74.20
44607;DHT22;30315;46.072;14.474;2023-08-21T03:10:28;25.30;74.40
44607;DHT22;30315;46.072;14.474;2023-08-21T03:13:00;25.30;74.50
44607;DHT22;30315;46.072;14.474;2023-08-21T03:15:27;25.30;74.50
44607;DHT22;30315;46.072;14.474;2023-08-21T03:17:54;25.30;74.60
44607;DHT22;30315;46.072;14.474;2023-08-21T03:20:21;25.30;74.50
44607;DHT22;30315;46.072;14.474;2023-08-21T03:22:48;25.30;74.70
44607;DHT22;30315;46.072;14.474;2023-08-21T03:25:15;25.30;74.80
44607;DHT22;30315;46.072;14.474;2023-08-21T03:27:42;25.30;74.80
44607;DHT22;30315;46.072;14.474;2023-08-21T03:30:11;25.30;74.50
44607;DHT22;30315;46.072;14.474;2023-08-21T03:32:42;25.20;74.30
44607;DHT22;30315;46.072;14.474;2023-08-21T03:35:10;25.20;74.10
44607;DHT22;30315;46.072;14.474;2023-08-21T03:37:37;25.10;74.40
44607;DHT22;30315;46.072;14.474;2023-08-21T03:40:07;25.10;74.40
44607;DHT22;30315;46.072;14.474;2023-08-21T03:42:34;25.10;74.80
44607;DHT22;30315;46.072;14.474;2023-08-21T03:45:02;25.00;74.90
44607;DHT22;30315;46.072;14.474;2023-08-21T03:47:31;25.00;75.00
44607;DHT22;30315;46.072;14.474;2023-08-21T03:50:03;25.00;75.00
44607;DHT22;30315;46.072;14.474;2023-08-21T03:52:30;25.00;75.30
44607;DHT22;30315;46.072;14.474;2023-08-21T03:54:57;24.90;75.20
44607;DHT22;30315;46.072;14.474;2023-08-21T03:57:24;24.90;75.30
44607;DHT22;30315;46.072;14.474;2023-08-21T03:59:51;24.90;75.40
44607;DHT22;30315;46.072;14.474;2023-08-21T04:02:18;24.90;75.50
44607;DHT22;30315;46.072;14.474;2023-08-21T04:04:45;24.90;75.70
44607;DHT22;30315;46.072;14.474;2023-08-21T04:07:12;24.90;75.50
44607;DHT22;30315;46.072;14.474;2023-08-21T04:09:39;24.80;75.60
44607;DHT22;30315;46.072;14.474;2023-08-21T04:12:06;24.90;75.80
44607;DHT22;30315;46.072;14.474;2023-08-21T04:14:33;24.90;75.60
44607;DHT22;30315;46.072;14.474;2023-08-21T04:17:00;24.80;75.30
44607;DHT22;30315;46.072;14.474;2023-08-21T04:19:27;24.80;75.20
44607;DHT22;30315;46.072;14.474;2023-08-21T04:22:01;24.80;75.20
44607;DHT22;30315;46.072;14.474;2023-08-21T04:24:28;24.80;74.90
44607;DHT22;30315;46.072;14.474;2023-08-21T04:26:55;24.80;75.10
44607;DHT22;30315;46.072;14.474;2023-08-21T04:29:22;24.80;76.00
44607;DHT22;30315;46.072;14.474;2023-08-21T04:31:49;24.80;76.20
44607;DHT22;30315;46.072;14.474;2023-08-21T04:34:16;24.70;75.90
44607;DHT22;30315;46.072;14.474;2023-08-21T04:36:44;24.70;76.10
44607;DHT22;30315;46.072;14.474;2023-08-21T04:39:11;24.70;76.10
44607;DHT22;30315;46.072;14.474;2023-08-21T04:41:40;24.70;76.40
44607;DHT22;30315;46.072;14.474;2023-08-21T04:44:07;24.80;76.60
44607;DHT22;30315;46.072;14.474;2023-08-21T04:46:34;24.70;76.80
44607;DHT22;30315;46.072;14.474;2023-08-21T04:49:01;24.70;77.40
44607;DHT22;30315;46.072;14.474;2023-08-21T04:51:28;24.70;77.60
44607;DHT22;30315;46.072;14.474;2023-08-21T04:53:57;24.70;77.90
44607;DHT22;30315;46.072;14.474;2023-08-21T04:56:26;24.70;78.00
44607;DHT22;30315;46.072;14.474;2023-08-21T04:58:54;24.80;78.20
44607;DHT22;30315;46.072;14.474;2023-08-21T05:01:24;24.70;78.10
44607;DHT22;30315;46.072;14.474;2023-08-21T05:03:51;24.70;78.00
44607;DHT22;30315;46.072;14.474;2023-08-21T05:06:18;24.80;78.10
44607;DHT22;30315;46.072;14.474;2023-08-21T05:08:45;24.80;78.10
44607;DHT22;30315;46.072;14.474;2023-08-21T05:11:12;24.70;78.10
44607;DHT22;30315;46.072;14.474;2023-08-21T05:13:41;24.70;77.90
44607;DHT22;30315;46.072;14.474;2023-08-21T05:16:11;24.70;77.80
44607;DHT22;30315;46.072;14.474;2023-08-21T05:18:40;24.70;78.20
44607;DHT22;30315;46.072;14.474;2023-08-21T05:21:07;24.60;79.10
44607;DHT22;30315;46.072;14.474;2023-08-21T05:23:35;24.70;78.50
44607;DHT22;30315;46.072;14.474;2023-08-21T05:26:05;24.70;78.80
44607;DHT22;30315;46.072;14.474;2023-08-21T05:28:32;24.70;79.10
44607;DHT22;30315;46.072;14.474;2023-08-21T05:30:59;24.70;79.20
44607;DHT22;30315;46.072;14.474;2023-08-21T05:33:32;24.70;79.00
44607;DHT22;30315;46.072;14.474;2023-08-21T05:35:59;24.80;79.20
44607;DHT22;30315;46.072;14.474;2023-08-21T05:38:26;24.80;79.20
44607;DHT22;30315;46.072;14.474;2023-08-21T05:40:54;24.80;79.30
44607;DHT22;30315;46.072;14.474;2023-08-21T05:43:21;24.80;79.30
44607;DHT22;30315;46.072;14.474;2023-08-21T05:45:48;24.90;79.40
44607;DHT22;30315;46.072;14.474;2023-08-21T05:48:15;24.90;79.50
44607;DHT22;30315;46.072;14.474;2023-08-21T05:50:44;24.90;79.50
44607;DHT22;30315;46.072;14.474;2023-08-21T05:53:15;25.00;79.70
44607;DHT22;30315;46.072;14.474;2023-08-21T05:55:42;24.90;79.40
44607;DHT22;30315;46.072;14.474;2023-08-21T05:58:10;25.00;79.70
44607;DHT22;30315;46.072;14.474;2023-08-21T06:00:38;25.00;79.40
44607;DHT22;30315;46.072;14.474;2023-08-21T06:03:06;25.00;79.30
44607;DHT22;30315;46.072;14.474;2023-08-21T06:05:58;25.00;79.80
44607;DHT22;30315;46.072;14.474;2023-08-21T06:08:25;25.10;80.00
44607;DHT22;30315;46.072;14.474;2023-08-21T06:10:53;25.10;79.90
44607;DHT22;30315;46.072;14.474;2023-08-21T06:13:20;25.10;80.10
44607;DHT22;30315;46.072;14.474;2023-08-21T06:15:49;25.00;80.00
44607;DHT22;30315;46.072;14.474;2023-08-21T06:18:18;25.10;79.90
44607;DHT22;30315;46.072;14.474;2023-08-21T06:20:45;25.10;79.90
44607;DHT22;30315;46.072;14.474;2023-08-21T06:23:12;25.10;80.20
44607;DHT22;30315;46.072;14.474;2023-08-21T06:25:39;25.10;80.30
44607;DHT22;30315;46.072;14.474;2023-08-21T06:28:06;25.20;80.50
44607;DHT22;30315;46.072;14.474;2023-08-21T06:30:33;25.20;80.30
44607;DHT22;30315;46.072;14.474;2023-08-21T06:33:00;25.20;80.20
44607;DHT22;30315;46.072;14.474;2023-08-21T06:35:27;25.30;80.10
44607;DHT22;30315;46.072;14.474;2023-08-21T06:37:54;25.30;80.20
44607;DHT22;30315;46.072;14.474;2023-08-21T06:40:21;25.40;80.50
44607;DHT22;30315;46.072;14.474;2023-08-21T06:42:48;25.30;80.40
44607;DHT22;30315;46.072;14.474;2023-08-21T06:45:20;25.40;80.50
44607;DHT22;30315;46.072;14.474;2023-08-21T06:47:47;25.40;80.20
44607;DHT22;30315;46.072;14.474;2023-08-21T06:50:14;25.50;80.00
44607;DHT22;30315;46.072;14.474;2023-08-21T06:52:41;25.50;80.00
44607;DHT22;30315;46.072;14.474;2023-08-21T06:55:08;25.50;79.90
44607;DHT22;30315;46.072;14.474;2023-08-21T06:57:35;25.60;79.70
44607;DHT22;30315;46.072;14.474;2023-08-21T07:00:05;25.60;79.90
44607;DHT22;30315;46.072;14.474;2023-08-21T07:02:35;25.60;79.80
44607;DHT22;30315;46.072;14.474;2023-08-21T07:05:03;25.70;79.60
44607;DHT22;30315;46.072;14.474;2023-08-21T07:07:30;25.70;79.40
44607;DHT22;30315;46.072;14.474;2023-08-21T07:09:57;25.80;79.10
44607;DHT22;30315;46.072;14.474;2023-08-21T07:12:24;25.90;78.80
44607;DHT22;30315;46.072;14.474;2023-08-21T07:14:51;25.80;78.50
44607;DHT22;30315;46.072;14.474;2023-08-21T07:17:17;25.80;79.20
44607;DHT22;30315;46.072;14.474;2023-08-21T07:19:44;25.90;78.40
44607;DHT22;30315;46.072;14.474;2023-08-21T07:22:13;26.00;78.30
44607;DHT22;30315;46.072;14.474;2023-08-21T07:24:40;26.00;78.20
44607;DHT22;30315;46.072;14.474;2023-08-21T07:27:07;26.00;77.90
44607;DHT22;30315;46.072;14.474;2023-08-21T07:29:34;26.00;78.00
44607;DHT22;30315;46.072;14.474;2023-08-21T07:32:01;26.10;78.00
44607;DHT22;30315;46.072;14.474;2023-08-21T07:34:29;26.20;77.90
44607;DHT22;30315;46.072;14.474;2023-08-21T07:36:55;26.20;77.50
44607;DHT22;30315;46.072;14.474;2023-08-21T07:39:23;26.20;77.40
44607;DHT22;30315;46.072;14.474;2023-08-21T07:41:49;26.30;77.30
44607;DHT22;30315;46.072;14.474;2023-08-21T07:44:16;26.40;77.10
44607;DHT22;30315;46.072;14.474;2023-08-21T07:46:43;26.40;77.00
44607;DHT22;30315;46.072;14.474;2023-08-21T07:49:10;26.40;76.90
44607;DHT22;30315;46.072;14.474;2023-08-21T07:51:37;26.40;76.80
44607;DHT22;30315;46.072;14.474;2023-08-21T07:54:04;26.50;76.50
44607;DHT22;30315;46.072;14.474;2023-08-21T07:56:31;26.50;76.20
44607;DHT22;30315;46.072;14.474;2023-08-21T07:58:58;26.60;75.80
44607;DHT22;30315;46.072;14.474;2023-08-21T08:01:28;26.70;75.70
44607;DHT22;30315;46.072;14.474;2023-08-21T08:03:55;26.70;76.10
44607;DHT22;30315;46.072;14.474;2023-08-21T08:06:22;26.70;75.40
44607;DHT22;30315;46.072;14.474;2023-08-21T08:08:49;26.80;76.70
44607;DHT22;30315;46.072;14.474;2023-08-21T08:11:19;26.90;76.70
44607;DHT22;30315;46.072;14.474;2023-08-21T08:13:46;27.00;76.80
44607;DHT22;30315;46.072;14.474;2023-08-21T08:16:13;27.00;76.80
44607;DHT22;30315;46.072;14.474;2023-08-21T08:18:40;27.10;76.70
44607;DHT22;30315;46.072;14.474;2023-08-21T08:21:07;27.10;76.60
44607;DHT22;30315;46.072;14.474;2023-08-21T08:23:34;27.20;76.80
44607;DHT22;30315;46.072;14.474;2023-08-21T08:26:01;27.20;76.50
44607;DHT22;30315;46.072;14.474;2023-08-21T08:28:28;27.20;76.10
44607;DHT22;30315;46.072;14.474;2023-08-21T08:30:55;27.30;75.90
44607;DHT22;30315;46.072;14.474;2023-08-21T08:33:22;27.30;75.80
44607;DHT22;30315;46.072;14.474;2023-08-21T08:35:49;27.40;75.70
44607;DHT22;30315;46.072;14.474;2023-08-21T08:41:30;27.50;75.00
44607;DHT22;30315;46.072;14.474;2023-08-21T08:44:06;27.50;74.50
44607;DHT22;30315;46.072;14.474;2023-08-21T08:46:33;27.60;74.30
44607;DHT22;30315;46.072;14.474;2023-08-21T08:49:02;27.60;74.40
44607;DHT22;30315;46.072;14.474;2023-08-21T08:51:31;27.70;74.20
44607;DHT22;30315;46.072;14.474;2023-08-21T08:54:01;27.80;74.20
44607;DHT22;30315;46.072;14.474;2023-08-21T08:56:28;27.90;73.80
44607;DHT22;30315;46.072;14.474;2023-08-21T08:58:56;28.10;73.80
44607;DHT22;30315;46.072;14.474;2023-08-21T09:01:23;28.00;73.40
44607;DHT22;30315;46.072;14.474;2023-08-21T09:04:16;28.30;73.40
44607;DHT22;30315;46.072;14.474;2023-08-21T09:06:43;28.10;71.80
44607;DHT22;30315;46.072;14.474;2023-08-21T09:09:11;28.10;71.80
44607;DHT22;30315;46.072;14.474;2023-08-21T09:11:43;28.20;72.20
44607;DHT22;30315;46.072;14.474;2023-08-21T09:14:12;28.20;73.00
44607;DHT22;30315;46.072;14.474;2023-08-21T09:17:00;28.20;73.10
44607;DHT22;30315;46.072;14.474;2023-08-21T09:19:31;28.30;73.00
44607;DHT22;30315;46.072;14.474;2023-08-21T09:21:59;28.30;73.20
44607;DHT22;30315;46.072;14.474;2023-08-21T09:24:26;28.30;73.10
44607;DHT22;30315;46.072;14.474;2023-08-21T09:26:54;28.40;72.90
44607;DHT22;30315;46.072;14.474;2023-08-21T09:29:21;28.40;73.30
44607;DHT22;30315;46.072;14.474;2023-08-21T09:31:49;28.50;73.20
44607;DHT22;30315;46.072;14.474;2023-08-21T09:34:19;28.80;72.80
44607;DHT22;30315;46.072;14.474;2023-08-21T09:36:54;28.60;71.80
44607;DHT22;30315;46.072;14.474;2023-08-21T09:39:22;28.70;71.40
44607;DHT22;30315;46.072;14.474;2023-08-21T09:41:59;28.80;71.20
44607;DHT22;30315;46.072;14.474;2023-08-21T09:44:27;28.80;70.90
44607;DHT22;30315;46.072;14.474;2023-08-21T09:46:54;28.80;70.10
44607;DHT22;30315;46.072;14.474;2023-08-21T09:49:22;28.90;70.20
44607;DHT22;30315;46.072;14.474;2023-08-21T09:51:50;28.90;70.10
44607;DHT22;30315;46.072;14.474;2023-08-21T09:54:18;29.00;70.00
44607;DHT22;30315;46.072;14.474;2023-08-21T09:56:49;29.10;69.80
44607;DHT22;30315;46.072;14.474;2023-08-21T09:59:17;29.20;68.90
44607;DHT22;30315;46.072;14.474;2023-08-21T10:01:47;29.30;68.40
44607;DHT22;30315;46.072;14.474;2023-08-21T10:04:24;29.30;68.10
44607;DHT22;30315;46.072;14.474;2023-08-21T10:07:13;29.50;68.10
44607;DHT22;30315;46.072;14.474;2023-08-21T10:09:43;29.50;67.90
44607;DHT22;30315;46.072;14.474;2023-08-21T10:12:13;29.60;67.90
44607;DHT22;30315;46.072;14.474;2023-08-21T10:15:07;29.60;67.50
44607;DHT22;30315;46.072;14.474;2023-08-21T10:17:45;29.40;66.70
44607;DHT22;30315;46.072;14.474;2023-08-21T10:20:13;29.70;66.90
44607;DHT22;30315;46.072;14.474;2023-08-21T10:22:56;29.80;66.30
44607;DHT22;30315;46.072;14.474;2023-08-21T10:25:41;29.80;66.30
44607;DHT22;30315;46.072;14.474;2023-08-21T10:28:09;29.90;66.80
44607;DHT22;30315;46.072;14.474;2023-08-21T10:30:47;29.90;65.80
44607;DHT22;30315;46.072;14.474;2023-08-21T10:33:15;30.10;64.90
44607;DHT22;30315;46.072;14.474;2023-08-21T10:35:42;29.80;64.60
44607;DHT22;30315;46.072;14.474;2023-08-21T10:43:46;30.20;63.80
44607;DHT22;30315;46.072;14.474;2023-08-21T10:46:13;30.30;63.80
44607;DHT22;30315;46.072;14.474;2023-08-21T10:48:45;30.30;63.60
44607;DHT22;30315;46.072;14.474;2023-08-21T10:51:13;30.40;63.60
44607;DHT22;30315;46.072;14.474;2023-08-21T10:53:40;30.50;64.00
44607;DHT22;30315;46.072;14.474;2023-08-21T10:56:09;30.60;64.50
44607;DHT22;30315;46.072;14.474;2023-08-21T10:58:44;30.60;64.20
44607;DHT22;30315;46.072;14.474;2023-08-21T11:01:18;30.70;63.90
44607;DHT22;30315;46.072;14.474;2023-08-21T11:03:46;30.80;64.30
44607;DHT22;30315;46.072;14.474;2023-08-21T11:06:19;30.90;64.30
44607;DHT22;30315;46.072;14.474;2023-08-21T11:08:46;31.00;64.60
44607;DHT22;30315;46.072;14.474;2023-08-21T11:11:13;31.10;64.10
44607;DHT22;30315;46.072;14.474;2023-08-21T11:13:40;31.10;63.00
44607;DHT22;30315;46.072;14.474;2023-08-21T11:16:08;31.30;62.60
44607;DHT22;30315;46.072;14.474;2023-08-21T11:18:37;31.30;62.10
44607;DHT22;30315;46.072;14.474;2023-08-21T11:21:10;31.40;61.40
44607;DHT22;30315;46.072;14.474;2023-08-21T11:23:41;31.50;61.70
44607;DHT22;30315;46.072;14.474;2023-08-21T11:26:11;31.60;62.50
44607;DHT22;30315;46.072;14.474;2023-08-21T11:28:42;31.70;61.60
44607;DHT22;30315;46.072;14.474;2023-08-21T11:31:10;31.80;60.00
44607;DHT22;30315;46.072;14.474;2023-08-21T11:33:37;31.90;59.00
44607;DHT22;30315;46.072;14.474;2023-08-21T11:36:05;31.90;58.50
44607;DHT22;30315;46.072;14.474;2023-08-21T11:38:32;32.10;57.60
44607;DHT22;30315;46.072;14.474;2023-08-21T11:41:01;32.20;57.70
44607;DHT22;30315;46.072;14.474;2023-08-21T11:43:42;32.20;58.10
44607;DHT22;30315;46.072;14.474;2023-08-21T11:46:12;32.30;58.80
44607;DHT22;30315;46.072;14.474;2023-08-21T11:48:41;32.40;58.00
44607;DHT22;30315;46.072;14.474;2023-08-21T11:51:09;32.50;58.80
44607;DHT22;30315;46.072;14.474;2023-08-21T11:53:39;32.60;58.80
44607;DHT22;30315;46.072;14.474;2023-08-21T11:56:15;32.70;58.80
44607;DHT22;30315;46.072;14.474;2023-08-21T11:58:45;32.90;58.70
44607;DHT22;30315;46.072;14.474;2023-08-21T12:01:21;33.00;57.30
44607;DHT22;30315;46.072;14.474;2023-08-21T12:03:50;33.10;56.40
44607;DHT22;30315;46.072;14.474;2023-08-21T12:06:24;33.10;56.40
44607;DHT22;30315;46.072;14.474;2023-08-21T12:08:52;33.20;55.90
44607;DHT22;30315;46.072;14.474;2023-08-21T12:11:20;33.30;55.20
44607;DHT22;30315;46.072;14.474;2023-08-21T12:13:47;33.40;55.60
44607;DHT22;30315;46.072;14.474;2023-08-21T12:16:21;33.40;55.00
44607;DHT22;30315;46.072;14.474;2023-08-21T12:18:48;33.50;55.20
44607;DHT22;30315;46.072;14.474;2023-08-21T12:21:15;33.60;55.40
44607;DHT22;30315;46.072;14.474;2023-08-21T12:23:42;33.70;55.20
44607;DHT22;30315;46.072;14.474;2023-08-21T12:26:09;33.70;54.30
44607;DHT22;30315;46.072;14.474;2023-08-21T12:28:38;33.80;54.70
44607;DHT22;30315;46.072;14.474;2023-08-21T12:31:05;33.80;54.90
44607;DHT22;30315;46.072;14.474;2023-08-21T12:33:33;34.00;54.00
44607;DHT22;30315;46.072;14.474;2023-08-21T12:36:10;34.00;54.00
44607;DHT22;30315;46.072;14.474;2023-08-21T12:38:37;34.10;53.30
44607;DHT22;30315;46.072;14.474;2023-08-21T12:41:04;34.10;52.80
44607;DHT22;30315;46.072;14.474;2023-08-21T12:43:31;34.20;52.70
44607;DHT22;30315;46.072;14.474;2023-08-21T12:45:59;34.20;53.00
44607;DHT22;30315;46.072;14.474;2023-08-21T12:48:26;34.30;52.70
44607;DHT22;30315;46.072;14.474;2023-08-21T12:50:53;34.40;53.10
44607;DHT22;30315;46.072;14.474;2023-08-21T12:53:21;34.60;53.00
44607;DHT22;30315;46.072;14.474;2023-08-21T12:55:48;34.70;53.20
44607;DHT22;30315;46.072;14.474;2023-08-21T12:58:15;34.80;52.60
44607;DHT22;30315;46.072;14.474;2023-08-21T13:00:42;34.90;52.00
44607;DHT22;30315;46.072;14.474;2023-08-21T13:03:10;35.00;51.20
44607;DHT22;30315;46.072;14.474;2023-08-21T13:05:37;35.10;51.40
44607;DHT22;30315;46.072;14.474;2023-08-21T13:08:05;35.30;51.20
44607;DHT22;30315;46.072;14.474;2023-08-21T13:10:32;35.40;50.90
44607;DHT22;30315;46.072;14.474;2023-08-21T13:13:00;35.40;50.00
44607;DHT22;30315;46.072;14.474;2023-08-21T13:15:30;35.50;50.50
44607;DHT22;30315;46.072;14.474;2023-08-21T13:17:57;35.50;50.00
44607;DHT22;30315;46.072;14.474;2023-08-21T13:20:25;35.50;50.20
44607;DHT22;30315;46.072;14.474;2023-08-21T13:22:52;35.60;50.00
44607;DHT22;30315;46.072;14.474;2023-08-21T13:25:21;35.60;49.40
44607;DHT22;30315;46.072;14.474;2023-08-21T13:27:51;35.70;49.80
44607;DHT22;30315;46.072;14.474;2023-08-21T13:30:18;35.80;50.00
44607;DHT22;30315;46.072;14.474;2023-08-21T13:32:47;36.00;49.70
44607;DHT22;30315;46.072;14.474;2023-08-21T13:35:14;35.70;49.10
44607;DHT22;30315;46.072;14.474;2023-08-21T13:37:42;36.10;49.70
44607;DHT22;30315;46.072;14.474;2023-08-21T13:40:09;36.20;49.30
44607;DHT22;30315;46.072;14.474;2023-08-21T13:42:41;36.30;49.00
44607;DHT22;30315;46.072;14.474;2023-08-21T13:45:12;36.30;48.50
44607;DHT22;30315;46.072;14.474;2023-08-21T13:47:40;36.50;48.50
44607;DHT22;30315;46.072;14.474;2023-08-21T13:50:10;36.50;48.20
44607;DHT22;30315;46.072;14.474;2023-08-21T13:52:37;36.60;47.70
44607;DHT22;30315;46.072;14.474;2023-08-21T13:55:08;36.70;48.10
44607;DHT22;30315;46.072;14.474;2023-08-21T13:57:39;36.70;47.40
44607;DHT22;30315;46.072;14.474;2023-08-21T14:00:09;36.80;47.40
44607;DHT22;30315;46.072;14.474;2023-08-21T14:02:40;36.80;47.00
44607;DHT22;30315;46.072;14.474;2023-08-21T14:05:08;36.80;46.50
44607;DHT22;30315;46.072;14.474;2023-08-21T14:07:35;36.80;46.70
44607;DHT22;30315;46.072;14.474;2023-08-21T14:10:04;36.90;47.20
44607;DHT22;30315;46.072;14.474;2023-08-21T14:12:34;37.00;47.20
44607;DHT22;30315;46.072;14.474;2023-08-21T14:15:08;37.10;46.90
44607;DHT22;30315;46.072;14.474;2023-08-21T14:17:35;37.10;46.10
44607;DHT22;30315;46.072;14.474;2023-08-21T14:20:04;37.30;46.20
44607;DHT22;30315;46.072;14.474;2023-08-21T14:22:31;37.20;46.30
44607;DHT22;30315;46.072;14.474;2023-08-21T14:24:59;37.30;46.20
44607;DHT22;30315;46.072;14.474;2023-08-21T14:27:27;37.40;46.20
44607;DHT22;30315;46.072;14.474;2023-08-21T14:29:54;37.40;46.00
44607;DHT22;30315;46.072;14.474;2023-08-21T14:32:21;37.50;46.00
44607;DHT22;30315;46.072;14.474;2023-08-21T14:34:49;37.70;46.00
44607;DHT22;30315;46.072;14.474;2023-08-21T14:37:16;37.70;45.40
44607;DHT22;30315;46.072;14.474;2023-08-21T14:39:43;37.80;45.20
44607;DHT22;30315;46.072;14.474;2023-08-21T14:42:13;37.80;45.20
44607;DHT22;30315;46.072;14.474;2023-08-21T14:44:40;37.90;44.70
44607;DHT22;30315;46.072;14.474;2023-08-21T14:47:08;37.90;43.90
44607;DHT22;30315;46.072;14.474;2023-08-21T14:49:35;37.90;43.80
44607;DHT22;30315;46.072;14.474;2023-08-21T14:52:02;38.00;44.30
44607;DHT22;30315;46.072;14.474;2023-08-21T14:54:30;38.10;44.60
44607;DHT22;30315;46.072;14.474;2023-08-21T14:56:57;38.10;45.00
44607;DHT22;30315;46.072;14.474;2023-08-21T14:59:24;38.20;45.10
44607;DHT22;30315;46.072;14.474;2023-08-21T15:01:52;38.20;44.90
44607;DHT22;30315;46.072;14.474;2023-08-21T15:04:19;38.30;44.50
44607;DHT22;30315;46.072;14.474;2023-08-21T15:06:46;38.40;44.30
44607;DHT22;30315;46.072;14.474;2023-08-21T15:09:14;38.40;44.40
44607;DHT22;30315;46.072;14.474;2023-08-21T15:11:41;38.40;44.20
44607;DHT22;30315;46.072;14.474;2023-08-21T15:14:16;38.50;44.20
44607;DHT22;30315;46.072;14.474;2023-08-21T15:16:43;38.60;44.20
44607;DHT22;30315;46.072;14.474;2023-08-21T15:19:10;38.60;44.00
44607;DHT22;30315;46.072;14.474;2023-08-21T15:21:41;38.60;43.50
44607;DHT22;30315;46.072;14.474;2023-08-21T15:24:08;38.60;43.50
44607;DHT22;30315;46.072;14.474;2023-08-21T15:26:36;38.60;44.10
44607;DHT22;30315;46.072;14.474;2023-08-21T15:29:03;38.70;44.50
44607;DHT22;30315;46.072;14.474;2023-08-21T15:31:30;38.70;44.70
44607;DHT22;30315;46.072;14.474;2023-08-21T15:33:57;38.70;44.50
44607;DHT22;30315;46.072;14.474;2023-08-21T15:36:24;38.70;43.90